Terminal Aerodrome Forecast
Issued by NWS

Home | Current Version | Previous Version | Text Only | Print | Product List | Glossary On
Versions: 1 2 3 4 5 6 7 8 9 10 11 12 13 14 15 16 17 18 19 20
746
FTUS46 KMFR 280520
TAFOTH
TAF
KOTH 280520Z 2806/2906 36010G15KT 5SM BR OVC004
     FM281100 35008KT 1SM BR OVC003
     FM281600 36012G18KT 4SM BR OVC006
     FM281800 35018G25KT P6SM BKN010
     FM282000 35026G35KT P6SM SCT012
     FM290300 36020G27KT 5SM BR OVC005=

USA.gov is the U.S. government's official web portal to all federal, state and local government web resources and services.